createdAt,value
2018-12-19T00:01:38.192Z,20.05
2018-12-19T00:04:05.731Z,20.10
2018-12-19T00:06:33.298Z,18.90
2018-12-19T00:09:03.285Z,20.85
2018-12-19T00:11:30.469Z,19.27
2018-12-19T00:13:57.967Z,18.50
2018-12-19T00:16:25.454Z,20.45
2018-12-19T00:18:52.985Z,20.85
2018-12-19T00:21:20.551Z,19.60
2018-12-19T00:23:48.377Z,20.85
2018-12-19T00:26:15.892Z,20.32
2018-12-19T00:28:43.399Z,20.60
2018-12-19T00:31:10.912Z,19.50
2018-12-19T00:33:38.440Z,19.27
2018-12-19T00:36:05.987Z,19.42
2018-12-19T00:38:33.494Z,19.65
2018-12-19T00:41:01.058Z,21.50
2018-12-19T00:43:28.612Z,19.50
2018-12-19T00:45:56.127Z,17.92
2018-12-19T00:48:23.655Z,21.55
2018-12-19T00:50:51.163Z,20.00
2018-12-19T00:53:18.693Z,20.40
2018-12-19T00:55:46.230Z,20.55
2018-12-19T00:58:13.869Z,20.52
2018-12-19T01:00:41.382Z,20.75
2018-12-19T01:03:08.899Z,20.50
2018-12-19T01:05:36.391Z,19.02
2018-12-19T01:08:03.969Z,20.12
2018-12-19T01:10:31.598Z,18.90
2018-12-19T01:12:59.139Z,19.35
2018-12-19T01:15:26.680Z,18.90
2018-12-19T01:17:54.205Z,19.50
2018-12-19T01:20:21.767Z,19.82
2018-12-19T01:22:49.271Z,16.57
2018-12-19T01:25:16.787Z,18.02
2018-12-19T01:27:44.321Z,17.45
2018-12-19T01:30:11.845Z,17.92
2018-12-19T01:32:39.401Z,17.35
2018-12-19T01:35:06.922Z,16.40
2018-12-19T01:37:35.067Z,16.00
2018-12-19T01:40:03.115Z,14.68
2018-12-19T01:42:30.623Z,16.37
2018-12-19T01:44:58.169Z,15.55
2018-12-19T01:47:25.677Z,17.15
2018-12-19T01:49:53.169Z,14.75
2018-12-19T01:52:20.669Z,13.28
2018-12-19T01:54:48.192Z,12.95
2018-12-19T01:57:15.777Z,13.20
2018-12-19T01:59:43.395Z,13.62
2018-12-19T02:02:11.294Z,14.20
2018-12-19T02:04:38.808Z,12.70
2018-12-19T02:07:06.334Z,13.93
2018-12-19T02:09:33.973Z,12.18
2018-12-19T02:12:01.527Z,13.80
2018-12-19T02:14:29.072Z,13.98
2018-12-19T02:16:56.618Z,13.08
2018-12-19T02:19:24.129Z,15.40
2018-12-19T02:21:51.676Z,12.10
2018-12-19T02:24:19.226Z,13.28
2018-12-19T02:26:46.723Z,13.13
2018-12-19T02:29:14.201Z,12.50
2018-12-19T02:31:41.713Z,13.60
2018-12-19T02:34:09.328Z,12.95
2018-12-19T02:36:36.889Z,13.80
2018-12-19T02:39:06.928Z,12.70
2018-12-19T02:41:34.513Z,12.85
2018-12-19T02:44:02.352Z,12.10
2018-12-19T02:46:29.853Z,13.13
2018-12-19T02:48:57.412Z,14.03
2018-12-19T02:51:24.930Z,13.25
2018-12-19T02:53:52.427Z,13.75
2018-12-19T02:56:19.950Z,10.72
2018-12-19T02:58:47.437Z,12.73
2018-12-19T03:01:14.966Z,13.53
2018-12-19T03:03:42.509Z,12.30
2018-12-19T03:06:10.090Z,13.38
2018-12-19T03:08:37.585Z,14.18
2018-12-19T03:11:05.344Z,13.03
2018-12-19T03:13:32.986Z,13.20
2018-12-19T03:16:00.504Z,12.00
2018-12-19T03:18:28.039Z,12.95
2018-12-19T03:20:55.567Z,12.60
2018-12-19T03:23:23.092Z,12.58
2018-12-19T03:25:50.706Z,11.55
2018-12-19T03:28:18.196Z,13.28
2018-12-19T03:30:45.715Z,13.50
2018-12-19T03:33:13.233Z,12.58
2018-12-19T03:35:40.753Z,11.95
2018-12-19T03:38:10.288Z,12.78
2018-12-19T03:40:37.814Z,11.70
2018-12-19T03:43:05.313Z,12.75
2018-12-19T03:45:32.840Z,12.82
2018-12-19T03:48:00.352Z,11.95
2018-12-19T03:50:27.843Z,11.18
2018-12-19T03:52:55.373Z,11.63
2018-12-19T03:55:22.860Z,12.00
2018-12-19T03:57:50.611Z,10.15
2018-12-19T04:00:18.180Z,11.00
2018-12-19T04:02:45.711Z,12.03
2018-12-19T04:05:13.199Z,12.15
2018-12-19T04:07:40.760Z,11.43
2018-12-19T04:10:08.290Z,10.75
2018-12-19T04:12:35.780Z,11.10
2018-12-19T04:15:03.558Z,10.72
2018-12-19T04:17:31.046Z,10.72
2018-12-19T04:20:05.089Z,10.68
2018-12-19T04:22:32.617Z,10.78
2018-12-19T04:25:01.142Z,11.00
2018-12-19T04:27:28.665Z,9.60
2018-12-19T04:29:56.172Z,10.75
2018-12-19T04:32:23.924Z,11.63
2018-12-19T04:34:51.487Z,11.18
2018-12-19T04:37:19.038Z,8.93
2018-12-19T04:39:46.596Z,11.55
2018-12-19T04:42:14.178Z,10.78
2018-12-19T04:44:41.687Z,11.08
2018-12-19T04:47:09.208Z,11.45
2018-12-19T04:49:36.748Z,11.05
2018-12-19T04:52:04.315Z,10.78
2018-12-19T04:54:31.824Z,11.80
2018-12-19T04:56:59.302Z,11.68
2018-12-19T04:59:26.794Z,11.83
2018-12-19T05:01:55.052Z,11.15
2018-12-19T05:04:22.533Z,11.15
2018-12-19T05:06:50.035Z,10.68
2018-12-19T05:09:17.535Z,11.63
2018-12-19T05:11:45.098Z,10.70
2018-12-19T05:14:12.860Z,11.28
2018-12-19T05:16:40.582Z,11.90
2018-12-19T05:19:08.112Z,10.93
2018-12-19T05:21:35.772Z,12.33
2018-12-19T05:24:03.319Z,12.10
2018-12-19T05:26:30.884Z,12.33
2018-12-19T05:28:59.119Z,12.60
2018-12-19T05:31:26.818Z,12.50
2018-12-19T05:33:54.350Z,11.75
2018-12-19T05:36:21.905Z,12.60
2018-12-19T05:38:49.403Z,12.85
2018-12-19T05:41:16.989Z,13.60
2018-12-19T05:43:44.478Z,12.82
2018-12-19T05:46:11.961Z,13.72
2018-12-19T05:48:39.455Z,14.40
2018-12-19T05:51:06.958Z,12.45
2018-12-19T05:53:34.513Z,13.45
2018-12-19T05:56:02.030Z,13.43
2018-12-19T05:58:29.684Z,14.38
2018-12-19T06:00:57.216Z,14.28
2018-12-19T06:03:24.727Z,13.53
2018-12-19T06:05:52.216Z,13.95
2018-12-19T06:08:19.749Z,15.60
2018-12-19T06:10:47.264Z,14.90
2018-12-19T06:13:14.837Z,14.58
2018-12-19T06:15:42.374Z,12.68
2018-12-19T06:18:09.910Z,14.95
2018-12-19T06:20:37.382Z,14.95
2018-12-19T06:23:08.136Z,15.05
2018-12-19T06:25:35.765Z,16.30
2018-12-19T06:28:03.354Z,14.50
2018-12-19T06:30:31.331Z,17.05
2018-12-19T06:32:58.982Z,15.70
2018-12-19T06:35:26.708Z,15.88
2018-12-19T06:37:55.390Z,14.50
2018-12-19T06:40:23.043Z,16.00
2018-12-19T06:42:50.935Z,17.45
2018-12-19T06:45:18.481Z,15.70
2018-12-19T06:47:46.011Z,17.40
2018-12-19T06:50:13.536Z,15.05
2018-12-19T06:52:41.204Z,16.52
2018-12-19T06:55:08.718Z,16.27
2018-12-19T06:57:36.209Z,17.57
2018-12-19T07:00:06.361Z,15.63
2018-12-19T07:02:33.922Z,15.75
2018-12-19T07:05:01.402Z,15.40
2018-12-19T07:07:29.929Z,15.43
2018-12-19T07:09:57.542Z,16.05
2018-12-19T07:12:25.256Z,16.70
2018-12-19T07:14:52.917Z,16.17
2018-12-19T07:17:20.449Z,16.80
2018-12-19T07:19:48.982Z,16.50
2018-12-19T07:22:16.521Z,17.05
2018-12-19T07:24:44.002Z,16.97
2018-12-19T07:27:11.529Z,19.40
2018-12-19T07:29:39.101Z,16.17
2018-12-19T07:32:06.655Z,17.00
2018-12-19T07:34:34.138Z,16.02
2018-12-19T07:37:01.688Z,19.00
2018-12-19T07:39:29.212Z,20.77
2018-12-19T07:41:56.800Z,20.65
2018-12-19T07:44:24.265Z,23.65
2018-12-19T07:46:51.788Z,22.75
2018-12-19T07:49:19.336Z,21.23
2018-12-19T07:51:46.827Z,21.55
2018-12-19T07:54:14.301Z,20.12
2018-12-19T07:56:41.783Z,19.10
2018-12-19T07:59:09.388Z,18.35
2018-12-19T08:01:36.886Z,16.48
2018-12-19T08:04:04.652Z,18.32
2018-12-19T08:06:32.434Z,19.90
2018-12-19T08:08:59.920Z,18.17
2018-12-19T08:11:27.404Z,17.67
2018-12-19T08:13:54.900Z,18.25
2018-12-19T08:16:22.365Z,18.17
2018-12-19T08:18:49.854Z,16.02
2018-12-19T08:21:17.405Z,19.37
2018-12-19T08:23:44.923Z,18.15
2018-12-19T08:26:12.382Z,22.32
2018-12-19T08:28:40.579Z,23.95
2018-12-19T08:31:08.086Z,27.35
2018-12-19T08:33:35.612Z,28.67
2018-12-19T08:36:03.215Z,26.95
2018-12-19T08:38:30.730Z,28.50
2018-12-19T08:40:58.966Z,30.70
2018-12-19T08:43:26.652Z,33.25
2018-12-19T08:45:54.608Z,30.08
2018-12-19T08:48:22.090Z,24.37
2018-12-19T08:50:49.587Z,20.23
2018-12-19T08:53:17.100Z,18.65
2018-12-19T08:55:44.607Z,18.35
2018-12-19T08:58:12.119Z,17.07
2018-12-19T09:00:39.631Z,17.35
2018-12-19T09:03:07.131Z,18.07
2018-12-19T09:05:34.617Z,18.77
2018-12-19T09:08:02.178Z,18.10
2018-12-19T09:10:29.675Z,18.92
2018-12-19T09:12:57.236Z,18.67
2018-12-19T09:15:30.278Z,17.20
2018-12-19T09:17:57.809Z,18.80
2018-12-19T09:20:25.503Z,18.80
2018-12-19T09:22:52.967Z,15.45
2018-12-19T09:25:20.650Z,17.20
2018-12-19T09:27:48.182Z,16.93
2018-12-19T09:30:15.799Z,17.32
2018-12-19T09:32:43.445Z,19.05
2018-12-19T09:35:10.900Z,18.25
2018-12-19T09:37:38.477Z,17.50
2018-12-19T09:40:12.554Z,17.65
2018-12-19T09:42:40.036Z,18.35
2018-12-19T09:45:07.689Z,16.80
2018-12-19T09:47:35.320Z,19.02
2018-12-19T09:50:03.188Z,17.92
2018-12-19T09:52:30.740Z,19.40
2018-12-19T09:54:58.335Z,19.25
2018-12-19T09:57:26.184Z,19.45
2018-12-19T09:59:53.667Z,20.55
2018-12-19T10:02:22.551Z,17.40
2018-12-19T10:04:50.032Z,17.05
2018-12-19T10:07:17.673Z,17.35
2018-12-19T10:09:45.178Z,14.87
2018-12-19T10:12:12.742Z,15.53
2018-12-19T10:14:40.874Z,15.43
2018-12-19T10:17:08.391Z,18.02
2018-12-19T10:19:35.878Z,18.15
2018-12-19T10:22:03.534Z,23.38
2018-12-19T10:24:36.951Z,21.93
2018-12-19T10:27:04.490Z,19.70
2018-12-19T10:29:32.020Z,17.65
2018-12-19T10:31:59.553Z,16.57
2018-12-19T10:34:27.079Z,15.93
2018-12-19T10:36:54.549Z,17.27
2018-12-19T10:39:22.316Z,17.27
2018-12-19T10:41:49.806Z,16.60
2018-12-19T10:44:18.002Z,16.15
2018-12-19T10:46:45.754Z,18.12
2018-12-19T10:49:13.272Z,18.30
2018-12-19T10:51:40.821Z,20.23
2018-12-19T10:54:08.359Z,19.48
2018-12-19T10:56:35.865Z,17.75
2018-12-19T10:59:03.402Z,17.37
2018-12-19T11:01:30.877Z,18.15
2018-12-19T11:03:58.432Z,17.02
2018-12-19T11:06:25.996Z,16.07
2018-12-19T11:08:53.546Z,16.37
2018-12-19T11:11:21.013Z,18.17
2018-12-19T11:13:48.535Z,16.80
2018-12-19T11:16:16.083Z,17.48
2018-12-19T11:18:43.654Z,16.75
2018-12-19T11:21:12.574Z,19.87
2018-12-19T11:23:40.253Z,21.37
2018-12-19T11:26:07.797Z,22.30
2018-12-19T11:28:35.361Z,17.90
2018-12-19T11:31:03.152Z,18.87
2018-12-19T11:33:30.705Z,19.02
2018-12-19T11:35:58.270Z,18.27
2018-12-19T11:38:25.873Z,21.82
2018-12-19T11:40:53.451Z,19.02
2018-12-19T11:43:20.993Z,17.35
2018-12-19T11:45:48.505Z,17.77
2018-12-19T11:48:16.001Z,17.05
2018-12-19T11:50:43.469Z,18.37
2018-12-19T11:53:11.048Z,17.60
2018-12-19T11:55:38.609Z,16.20
2018-12-19T11:58:06.140Z,17.87
2018-12-19T12:00:33.665Z,16.00
2018-12-19T12:03:01.228Z,18.30
2018-12-19T12:05:28.744Z,17.27
2018-12-19T12:07:56.266Z,17.77
2018-12-19T12:10:23.757Z,16.75
2018-12-19T12:12:51.276Z,16.70
2018-12-19T12:15:18.811Z,17.00
2018-12-19T12:17:46.328Z,16.70
2018-12-19T12:20:13.964Z,16.65
2018-12-19T12:22:41.461Z,16.25
2018-12-19T12:25:08.975Z,16.87
2018-12-19T12:27:36.476Z,14.75
2018-12-19T12:30:04.861Z,16.37
2018-12-19T12:32:32.517Z,16.10
2018-12-19T12:35:00.017Z,16.95
2018-12-19T12:37:27.485Z,16.90
2018-12-19T12:39:54.990Z,16.65
2018-12-19T12:42:22.468Z,16.27
2018-12-19T12:44:50.309Z,17.23
2018-12-19T12:47:17.829Z,17.32
2018-12-19T12:49:45.474Z,16.62
2018-12-19T12:52:13.027Z,16.45
2018-12-19T12:54:40.690Z,17.05
2018-12-19T12:57:08.206Z,16.70
2018-12-19T12:59:35.946Z,16.93
2018-12-19T13:02:03.482Z,15.80
2018-12-19T13:04:31.001Z,16.10
2018-12-19T13:06:58.536Z,16.30
2018-12-19T13:09:26.191Z,17.45
2018-12-19T13:11:58.860Z,19.00
2018-12-19T13:14:23.480Z,18.67
2018-12-19T13:16:50.968Z,19.02
2018-12-19T13:19:18.579Z,19.37
2018-12-19T13:21:46.274Z,16.52
2018-12-19T13:24:13.749Z,18.50
2018-12-19T13:26:41.331Z,17.65
2018-12-19T13:29:08.899Z,19.05
2018-12-19T13:31:36.645Z,17.65
2018-12-19T13:34:04.318Z,18.73
2018-12-19T13:36:31.959Z,16.80
2018-12-19T13:38:59.509Z,18.50
2018-12-19T13:41:27.545Z,16.62
2018-12-19T13:43:55.482Z,16.90
2018-12-19T13:46:23.060Z,17.62
2018-12-19T13:48:50.632Z,16.57
2018-12-19T13:51:18.137Z,20.80
2018-12-19T13:53:45.702Z,17.82
2018-12-19T13:56:13.221Z,16.62
2018-12-19T13:58:41.336Z,17.75
2018-12-19T14:01:08.841Z,18.07
2018-12-19T14:03:36.348Z,16.85
2018-12-19T14:06:03.904Z,16.90
2018-12-19T14:08:31.382Z,19.10
2018-12-19T14:10:58.904Z,17.15
2018-12-19T14:13:26.424Z,17.87
2018-12-19T14:15:53.923Z,16.82
2018-12-19T14:18:21.505Z,16.20
2018-12-19T14:20:48.954Z,17.73
2018-12-19T14:23:16.498Z,17.35
2018-12-19T14:25:44.016Z,18.37
2018-12-19T14:28:11.652Z,23.22
2018-12-19T14:30:39.315Z,20.05
2018-12-19T14:33:06.845Z,16.62
2018-12-19T14:35:34.336Z,19.40
2018-12-19T14:38:01.903Z,16.25
2018-12-19T14:40:30.089Z,18.70
2018-12-19T14:42:57.626Z,18.15
2018-12-19T14:45:25.216Z,18.87
2018-12-19T14:47:52.800Z,17.02
2018-12-19T14:50:20.327Z,17.40
2018-12-19T14:52:47.887Z,16.50
2018-12-19T14:55:16.514Z,16.02
2018-12-19T14:57:43.996Z,17.70
2018-12-19T15:00:11.531Z,17.42
2018-12-19T15:02:39.102Z,15.93
2018-12-19T15:05:06.970Z,16.52
2018-12-19T15:07:34.456Z,18.55
2018-12-19T15:10:03.135Z,18.45
2018-12-19T15:12:30.696Z,17.07
2018-12-19T15:14:58.247Z,17.50
2018-12-19T15:17:25.732Z,17.60
2018-12-19T15:19:53.330Z,17.60
2018-12-19T15:22:20.865Z,16.40
2018-12-19T15:24:48.481Z,19.20
2018-12-19T15:27:16.033Z,19.20
2018-12-19T15:29:43.568Z,19.17
2018-12-19T15:32:11.142Z,17.30
2018-12-19T15:34:38.677Z,17.30
2018-12-19T15:37:06.189Z,17.77
2018-12-19T15:39:33.742Z,17.35
2018-12-19T15:42:01.365Z,19.35
2018-12-19T15:44:28.887Z,19.07
2018-12-19T15:46:56.476Z,18.32
2018-12-19T15:49:24.044Z,17.10
2018-12-19T15:51:52.644Z,19.17
2018-12-19T15:54:20.403Z,15.58
2018-12-19T15:56:47.974Z,17.35
2018-12-19T15:59:15.522Z,18.70
2018-12-19T16:01:43.123Z,19.55
2018-12-19T16:04:10.792Z,18.37
2018-12-19T16:06:38.376Z,22.48
2018-12-19T16:09:06.477Z,27.27
2018-12-19T16:11:34.144Z,22.17
2018-12-19T16:14:02.000Z,18.27
2018-12-19T16:16:29.594Z,17.25
2018-12-19T16:18:57.181Z,16.32
2018-12-19T16:21:25.665Z,18.10
2018-12-19T16:23:53.261Z,17.45
2018-12-19T16:26:20.904Z,23.30
2018-12-19T16:28:48.512Z,19.85
2018-12-19T16:31:16.046Z,16.87
2018-12-19T16:33:43.622Z,17.20
2018-12-19T16:36:11.416Z,17.65
2018-12-19T16:38:39.091Z,21.20
2018-12-19T16:41:06.670Z,22.65
2018-12-19T16:43:34.302Z,20.92
2018-12-19T16:46:01.968Z,27.55
2018-12-19T16:48:29.498Z,20.82
2018-12-19T16:50:57.079Z,20.88
2018-12-19T16:53:24.744Z,18.67
2018-12-19T16:55:52.328Z,17.62
2018-12-19T16:58:19.942Z,29.20
2018-12-19T17:00:47.582Z,20.88
2018-12-19T17:03:15.255Z,16.40
2018-12-19T17:05:42.813Z,19.52
2018-12-19T17:08:10.397Z,18.87
2018-12-19T17:10:37.976Z,16.10
2018-12-19T17:13:05.679Z,16.85
2018-12-19T17:15:33.192Z,17.75
2018-12-19T17:18:00.724Z,18.02
2018-12-19T17:20:28.281Z,18.50
2018-12-19T17:22:55.923Z,18.45
2018-12-19T17:25:23.563Z,20.08
2018-12-19T17:27:51.143Z,19.77
2018-12-19T17:30:18.822Z,19.42
2018-12-19T17:32:46.501Z,19.75
2018-12-19T17:35:15.146Z,18.00
2018-12-19T17:37:42.726Z,18.92
2018-12-19T17:40:10.401Z,18.50
2018-12-19T17:42:37.991Z,20.90
2018-12-19T17:45:05.738Z,23.47
2018-12-19T17:47:33.341Z,21.20
2018-12-19T17:50:00.995Z,20.02
2018-12-19T17:52:28.595Z,20.37
2018-12-19T17:54:56.191Z,18.55
2018-12-19T17:57:23.787Z,18.05
2018-12-19T17:59:51.450Z,21.42
2018-12-19T18:02:19.035Z,21.20
2018-12-19T18:04:46.623Z,22.25
2018-12-19T18:07:14.224Z,21.95
2018-12-19T18:09:41.869Z,22.85
2018-12-19T18:12:09.457Z,26.52
2018-12-19T18:14:37.067Z,26.48
2018-12-19T18:17:04.727Z,24.45
2018-12-19T18:19:32.318Z,25.10
2018-12-19T18:21:59.891Z,22.90
2018-12-19T18:24:27.530Z,24.77
2018-12-19T18:26:55.129Z,22.90
2018-12-19T18:29:22.733Z,25.37
2018-12-19T18:31:50.372Z,25.52
2018-12-19T18:34:18.022Z,30.90
2018-12-19T18:36:46.086Z,30.43
2018-12-19T18:41:55.856Z,29.80
2018-12-19T18:44:23.594Z,28.87
2018-12-19T18:46:51.626Z,30.40
2018-12-19T18:49:19.426Z,30.62
2018-12-19T18:51:47.150Z,28.20
2018-12-19T18:54:15.339Z,27.22
2018-12-19T18:56:43.048Z,29.77
2018-12-19T18:59:10.784Z,30.88
2018-12-19T19:01:38.593Z,28.92
2018-12-19T19:04:06.283Z,33.08
2018-12-19T19:06:33.853Z,34.73
2018-12-19T19:09:01.516Z,33.73
2018-12-19T19:11:29.015Z,25.70
2018-12-19T19:13:56.620Z,31.15
2018-12-19T19:16:24.307Z,35.60
2018-12-19T19:18:51.827Z,27.87
2018-12-19T19:21:19.462Z,23.38
2018-12-19T19:23:47.446Z,23.22
2018-12-19T19:26:15.247Z,23.22
2018-12-19T19:28:42.887Z,21.65
2018-12-19T19:31:11.198Z,23.00
2018-12-19T19:33:38.850Z,22.70
2018-12-19T19:36:06.536Z,21.02
2018-12-19T19:38:34.228Z,21.65
2018-12-19T19:41:01.859Z,21.35
2018-12-19T19:43:29.472Z,20.82
2018-12-19T19:45:57.169Z,20.05
2018-12-19T19:48:24.761Z,21.87
2018-12-19T19:50:52.394Z,21.30
2018-12-19T19:53:20.234Z,22.15
2018-12-19T19:55:47.948Z,22.42
2018-12-19T19:58:15.699Z,23.77
2018-12-19T20:00:43.373Z,22.02
2018-12-19T20:03:10.903Z,22.22
2018-12-19T20:05:38.612Z,19.87
2018-12-19T20:08:06.332Z,21.27
2018-12-19T20:10:34.067Z,21.55
2018-12-19T20:13:01.834Z,20.20
2018-12-19T20:15:29.595Z,20.30
2018-12-19T20:17:57.236Z,20.20
2018-12-19T20:20:24.946Z,19.95
2018-12-19T20:22:52.677Z,21.40
2018-12-19T20:25:21.035Z,20.75
2018-12-19T20:27:48.962Z,21.02
2018-12-19T20:30:16.711Z,22.58
2018-12-19T20:32:44.414Z,21.42
2018-12-19T20:35:12.048Z,20.88
2018-12-19T20:37:39.906Z,20.50
2018-12-19T20:40:07.835Z,19.05
2018-12-19T20:42:35.505Z,19.85
2018-12-19T20:45:03.558Z,19.77
2018-12-19T20:47:31.473Z,18.82
2018-12-19T20:49:59.289Z,20.20
2018-12-19T20:52:26.955Z,21.45
2018-12-19T20:54:54.574Z,20.23
2018-12-19T20:57:22.284Z,21.30
2018-12-19T20:59:50.042Z,19.27
2018-12-19T21:02:17.757Z,19.27
2018-12-19T21:04:45.354Z,19.73
2018-12-19T21:07:13.059Z,20.27
2018-12-19T21:09:40.883Z,20.88
2018-12-19T21:12:08.685Z,18.98
2018-12-19T21:14:36.388Z,19.35
2018-12-19T21:17:10.086Z,18.65
2018-12-19T21:19:37.689Z,17.67
2018-12-19T21:22:09.216Z,17.80
2018-12-19T21:24:36.869Z,16.97
2018-12-19T21:27:04.495Z,20.95
2018-12-19T21:29:32.133Z,23.40
2018-12-19T21:31:59.833Z,23.65
2018-12-19T21:34:27.424Z,23.00
2018-12-19T21:36:55.014Z,24.12
2018-12-19T21:39:22.744Z,24.00
2018-12-19T21:41:50.350Z,22.37
2018-12-19T21:44:17.947Z,20.12
2018-12-19T21:46:45.756Z,20.62
2018-12-19T21:49:13.575Z,20.25
2018-12-19T21:51:41.213Z,17.80
2018-12-19T21:54:08.987Z,18.42
2018-12-19T21:56:36.517Z,19.02
2018-12-19T21:59:04.120Z,18.90
2018-12-19T22:01:31.703Z,18.02
2018-12-19T22:03:59.217Z,17.00
2018-12-19T22:06:26.780Z,17.02
2018-12-19T22:08:54.309Z,18.35
2018-12-19T22:11:21.909Z,18.23
2018-12-19T22:13:49.522Z,18.60
2018-12-19T22:16:22.684Z,16.70
2018-12-19T22:18:50.452Z,16.20
2018-12-19T22:21:17.996Z,17.75
2018-12-19T22:23:45.675Z,17.62
2018-12-19T22:26:13.271Z,17.37
2018-12-19T22:28:40.814Z,16.97
2018-12-19T22:31:08.357Z,13.15
2018-12-19T22:33:35.903Z,14.15
2018-12-19T22:36:03.461Z,13.00
2018-12-19T22:38:30.994Z,13.45
2018-12-19T22:40:58.637Z,12.43
2018-12-19T22:43:26.204Z,13.53
2018-12-19T22:45:53.831Z,13.43
2018-12-19T22:48:21.529Z,13.60
2018-12-19T22:50:49.227Z,12.78
2018-12-19T22:53:16.865Z,14.07
2018-12-19T22:55:44.654Z,13.25
2018-12-19T22:58:12.270Z,13.43
2018-12-19T23:00:45.735Z,12.53
2018-12-19T23:03:13.415Z,15.18
2018-12-19T23:05:46.803Z,13.53
2018-12-19T23:08:14.523Z,14.68
2018-12-19T23:10:42.119Z,14.07
2018-12-19T23:13:09.702Z,14.53
2018-12-19T23:15:37.292Z,14.35
2018-12-19T23:18:10.495Z,15.50
2018-12-19T23:20:38.368Z,14.83
2018-12-19T23:23:05.989Z,15.70
2018-12-19T23:25:33.603Z,16.15
2018-12-19T23:28:01.175Z,15.10
2018-12-19T23:30:29.013Z,15.50
2018-12-19T23:32:56.564Z,14.78
2018-12-19T23:35:24.173Z,17.32
2018-12-19T23:37:51.884Z,17.10
2018-12-19T23:40:19.451Z,19.42
2018-12-19T23:42:47.115Z,22.67
2018-12-19T23:45:14.796Z,21.95
2018-12-19T23:47:42.423Z,20.70
2018-12-19T23:50:10.050Z,21.82
2018-12-19T23:52:37.748Z,22.07
2018-12-19T23:55:05.837Z,22.25
2018-12-19T23:57:33.408Z,22.10
